Greenslough, Ireland
Current Conditions -  °F | °C
As of 4:00 PM on Saturday 20 Dec 2014 (Local Time) from EIDL Reporting Station
Broken Clouds Broken Clouds  
Wind Chill:   Ceiling: 3600
Heat Index:   Visibility: 6mi
Dew Point:   Wind: 18mph
Humidity: 81%   Direction: 260°W
Pressure: 30.3"   Gusts: NA
Location:  55.12°N, 7.9°W
Report Text: EIDL 201600Z 26016KT 9999 FEW019 SCT026 BKN036 08/05 Q1026
Loading
Personal Weather Stations






























Interactive Weather Map New forecast layout! Learn more

10-Day Weather Forecast

Advertisements
Track Severe Weather on mobile